createdAt,value
2018-06-03T00:01:44.815Z,14.98
2018-06-03T00:04:13.435Z,14.94
2018-06-03T00:06:42.190Z,14.93
2018-06-03T00:09:10.765Z,14.88
2018-06-03T00:11:39.432Z,14.94
2018-06-03T00:14:08.084Z,15.04
2018-06-03T00:16:36.802Z,14.92
2018-06-03T00:19:05.496Z,14.88
2018-06-03T00:21:43.747Z,14.99
2018-06-03T00:24:12.264Z,15.05
2018-06-03T00:26:43.804Z,14.93
2018-06-03T00:29:12.965Z,15.01
2018-06-03T00:31:41.772Z,14.99
2018-06-03T00:34:10.704Z,14.92
2018-06-03T00:36:43.837Z,15.01
2018-06-03T00:39:12.981Z,15.04
2018-06-03T00:41:42.161Z,15.03
2018-06-03T00:44:11.329Z,14.98
2018-06-03T00:46:40.307Z,14.94
2018-06-03T00:49:09.401Z,14.96
2018-06-03T00:51:38.410Z,14.92
2018-06-03T00:54:07.231Z,14.95
2018-06-03T00:56:47.890Z,14.95
2018-06-03T00:59:16.714Z,15.06
2018-06-03T01:01:45.654Z,15.05
2018-06-03T01:04:14.723Z,15.04
2018-06-03T01:06:43.624Z,14.72
2018-06-03T01:09:12.733Z,14.62
2018-06-03T01:11:41.838Z,14.55
2018-06-03T01:14:10.685Z,14.39
2018-06-03T01:16:40.013Z,14.34
2018-06-03T01:19:10.662Z,14.40
2018-06-03T01:21:39.865Z,14.35
2018-06-03T01:24:09.299Z,14.29
2018-06-03T01:26:38.464Z,14.22
2018-06-03T01:29:07.301Z,14.29
2018-06-03T01:31:36.261Z,14.27
2018-06-03T01:34:05.218Z,14.28
2018-06-03T01:36:34.451Z,14.33
2018-06-03T01:39:03.428Z,14.24
2018-06-03T01:41:32.511Z,14.17
2018-06-03T01:44:01.607Z,14.23
2018-06-03T01:46:30.674Z,14.29
2018-06-03T01:48:59.610Z,14.21
2018-06-03T01:51:28.544Z,14.23
2018-06-03T01:53:57.655Z,14.30
2018-06-03T01:56:26.796Z,14.31
2018-06-03T01:58:55.659Z,14.35
2018-06-03T02:01:24.720Z,14.51
2018-06-03T02:03:53.900Z,14.39
2018-06-03T02:06:22.854Z,14.38
2018-06-03T02:08:51.908Z,14.40
2018-06-03T02:11:21.059Z,14.37
2018-06-03T02:13:50.218Z,14.42
2018-06-03T02:16:19.332Z,14.32
2018-06-03T02:18:48.255Z,14.25
2018-06-03T02:21:17.416Z,14.19
2018-06-03T02:23:46.447Z,14.15
2018-06-03T02:26:15.385Z,14.17
2018-06-03T02:28:44.480Z,14.22
2018-06-03T02:31:13.541Z,14.24
2018-06-03T02:33:42.449Z,14.17
2018-06-03T02:36:11.376Z,14.11
2018-06-03T02:38:40.381Z,13.99
2018-06-03T02:41:09.388Z,13.90
2018-06-03T02:43:38.450Z,13.99
2018-06-03T02:46:07.689Z,14.03
2018-06-03T02:48:36.699Z,14.10
2018-06-03T02:51:05.844Z,14.14
2018-06-03T02:53:34.885Z,14.31
2018-06-03T02:56:03.786Z,14.38
2018-06-03T02:58:32.678Z,14.33
2018-06-03T03:01:01.497Z,14.29
2018-06-03T03:03:30.449Z,14.28
2018-06-03T03:05:59.338Z,14.40
2018-06-03T03:08:28.297Z,14.29
2018-06-03T03:10:58.024Z,14.35
2018-06-03T03:13:26.975Z,14.42
2018-06-03T03:15:56.243Z,14.40
2018-06-03T03:18:25.156Z,14.41
2018-06-03T03:20:54.045Z,14.58
2018-06-03T03:23:23.206Z,14.52
2018-06-03T03:25:52.158Z,14.63
2018-06-03T03:28:21.272Z,14.85
2018-06-03T03:30:50.378Z,14.94
2018-06-03T03:33:19.482Z,15.05
2018-06-03T03:35:48.303Z,15.18
2018-06-03T03:38:17.900Z,15.29
2018-06-03T03:40:47.026Z,15.48
2018-06-03T03:43:16.094Z,15.57
2018-06-03T03:45:45.341Z,15.60
2018-06-03T03:48:14.241Z,15.59
2018-06-03T03:50:43.285Z,15.81
2018-06-03T03:53:12.434Z,15.66
2018-06-03T03:55:41.678Z,15.63
2018-06-03T03:58:10.567Z,15.44
2018-06-03T04:00:39.368Z,15.22
2018-06-03T04:03:08.200Z,15.20
2018-06-03T04:05:37.363Z,15.43
2018-06-03T04:08:07.062Z,15.58
2018-06-03T04:10:36.254Z,15.29
2018-06-03T04:13:05.279Z,15.49
2018-06-03T04:15:34.264Z,15.56
2018-06-03T04:18:03.086Z,15.62
2018-06-03T04:20:32.204Z,15.80
2018-06-03T04:23:01.276Z,15.76
2018-06-03T04:25:30.291Z,15.93
2018-06-03T04:27:59.184Z,16.05
2018-06-03T04:30:28.205Z,15.96
2018-06-03T04:32:57.442Z,16.09
2018-06-03T04:35:26.655Z,16.29
2018-06-03T04:37:55.655Z,16.13
2018-06-03T04:40:24.542Z,16.31
2018-06-03T04:42:53.674Z,16.40
2018-06-03T04:45:22.832Z,16.60
2018-06-03T04:47:51.660Z,16.76
2018-06-03T04:50:20.661Z,16.78
2018-06-03T04:52:49.653Z,16.49
2018-06-03T04:55:18.495Z,16.94
2018-06-03T04:57:47.532Z,16.95
2018-06-03T05:00:17.380Z,16.76
2018-06-03T05:02:46.459Z,16.99
2018-06-03T05:05:15.399Z,17.04
2018-06-03T05:07:44.372Z,16.99
2018-06-03T05:10:13.394Z,17.04
2018-06-03T05:12:42.439Z,17.19
2018-06-03T05:15:11.383Z,17.37
2018-06-03T05:17:40.265Z,17.57
2018-06-03T05:20:09.111Z,17.74
2018-06-03T05:22:38.076Z,17.69
2018-06-03T05:25:07.258Z,17.90
2018-06-03T05:27:36.097Z,18.02
2018-06-03T05:30:05.039Z,17.89
2018-06-03T05:32:34.071Z,18.17
2018-06-03T05:35:03.016Z,18.50
2018-06-03T05:37:32.136Z,18.64
2018-06-03T05:40:01.167Z,18.37
2018-06-03T05:42:30.142Z,18.68
2018-06-03T05:44:58.978Z,18.71
2018-06-03T05:47:27.844Z,18.92
2018-06-03T05:49:56.771Z,18.89
2018-06-03T05:52:25.696Z,19.27
2018-06-03T05:54:54.917Z,19.59
2018-06-03T05:57:24.019Z,19.58
2018-06-03T05:59:53.000Z,19.45
2018-06-03T06:02:21.884Z,19.19
2018-06-03T06:04:50.956Z,18.97
2018-06-03T06:07:20.094Z,18.87
2018-06-03T06:09:48.892Z,18.90
2018-06-03T06:12:17.729Z,19.05
2018-06-03T06:14:46.695Z,18.91
2018-06-03T06:17:15.722Z,18.99
2018-06-03T06:19:44.632Z,19.48
2018-06-03T06:22:13.611Z,19.90
2018-06-03T06:24:42.404Z,19.38
2018-06-03T06:27:12.098Z,19.76
2018-06-03T06:29:41.049Z,20.19
2018-06-03T06:32:10.080Z,20.65
2018-06-03T06:34:39.246Z,21.15
2018-06-03T06:37:08.389Z,20.74
2018-06-03T06:39:37.437Z,20.41
2018-06-03T06:42:06.477Z,20.25
2018-06-03T06:44:35.353Z,20.35
2018-06-03T06:47:04.352Z,20.44
2018-06-03T06:49:33.472Z,20.64
2018-06-03T06:52:02.304Z,20.67
2018-06-03T06:54:31.296Z,20.68
2018-06-03T06:57:00.333Z,20.61
2018-06-03T06:59:29.524Z,20.74
2018-06-03T07:01:58.441Z,21.62
2018-06-03T07:04:27.490Z,21.15
2018-06-03T07:06:56.472Z,21.56
2018-06-03T07:09:25.309Z,21.83
2018-06-03T07:11:54.180Z,21.78
2018-06-03T07:14:23.034Z,21.90
2018-06-03T07:16:52.100Z,22.27
2018-06-03T07:19:21.273Z,22.39
2018-06-03T07:21:50.087Z,22.53
2018-06-03T07:24:18.982Z,22.19
2018-06-03T07:26:47.918Z,22.50
2018-06-03T07:29:16.734Z,22.79
2018-06-03T07:31:45.587Z,22.67
2018-06-03T07:34:14.638Z,23.17
2018-06-03T07:36:44.616Z,23.05
2018-06-03T07:39:13.777Z,23.06
2018-06-03T07:41:42.804Z,23.37
2018-06-03T07:44:11.848Z,23.28
2018-06-03T07:46:40.696Z,22.25
2018-06-03T07:49:09.771Z,23.34
2018-06-03T07:51:38.837Z,22.69
2018-06-03T07:54:08.067Z,21.99
2018-06-03T07:56:36.902Z,22.28
2018-06-03T07:59:05.959Z,22.01
2018-06-03T08:01:34.867Z,21.87
2018-06-03T08:04:03.774Z,21.99
2018-06-03T08:06:32.847Z,22.58
2018-06-03T08:09:01.900Z,22.97
2018-06-03T08:11:31.053Z,23.52
2018-06-03T08:13:59.928Z,23.28
2018-06-03T08:16:29.101Z,23.00
2018-06-03T08:18:58.235Z,23.19
2018-06-03T08:21:27.073Z,24.22
2018-06-03T08:23:56.172Z,23.65
2018-06-03T08:26:26.032Z,24.27
2018-06-03T08:28:55.020Z,22.58
2018-06-03T08:31:23.966Z,22.88
2018-06-03T08:33:53.088Z,22.51
2018-06-03T08:36:21.965Z,23.16
2018-06-03T08:38:51.022Z,23.11
2018-06-03T08:41:19.983Z,22.76
2018-06-03T08:43:49.043Z,23.42
2018-06-03T08:46:18.180Z,24.19
2018-06-03T08:48:47.340Z,24.22
2018-06-03T08:51:16.245Z,25.18
2018-06-03T08:53:45.274Z,25.93
2018-06-03T08:56:14.361Z,25.55
2018-06-03T08:58:43.266Z,24.85
2018-06-03T09:01:12.206Z,25.08
2018-06-03T09:03:41.390Z,24.82
2018-06-03T09:06:10.302Z,24.89
2018-06-03T09:08:39.336Z,24.86
2018-06-03T09:11:08.394Z,24.51
2018-06-03T09:13:37.460Z,24.55
2018-06-03T09:16:06.525Z,24.13
2018-06-03T09:18:35.664Z,24.15
2018-06-03T09:21:04.564Z,24.19
2018-06-03T09:23:33.528Z,24.49
2018-06-03T09:26:02.472Z,23.75
2018-06-03T09:28:31.336Z,24.03
2018-06-03T09:31:06.281Z,24.25
2018-06-03T09:33:35.206Z,24.18
2018-06-03T09:36:04.094Z,23.99
2018-06-03T09:38:32.979Z,23.58
2018-06-03T09:41:02.068Z,23.82
2018-06-03T09:43:30.916Z,23.65
2018-06-03T09:45:59.848Z,23.76
2018-06-03T09:48:28.761Z,23.94
2018-06-03T09:50:57.802Z,23.69
2018-06-03T09:53:26.776Z,23.77
2018-06-03T09:55:55.626Z,24.11
2018-06-03T09:58:24.639Z,24.06
2018-06-03T10:00:53.509Z,24.28
2018-06-03T10:03:22.423Z,24.53
2018-06-03T10:05:51.362Z,24.16
2018-06-03T10:08:20.446Z,24.25
2018-06-03T10:10:49.427Z,24.95
2018-06-03T10:13:18.318Z,24.27
2018-06-03T10:15:48.180Z,24.16
2018-06-03T10:18:17.138Z,24.21
2018-06-03T10:20:46.033Z,24.30
2018-06-03T10:23:14.892Z,24.56
2018-06-03T10:25:43.924Z,24.95
2018-06-03T10:28:13.010Z,24.85
2018-06-03T10:30:41.752Z,25.17
2018-06-03T10:33:10.668Z,24.77
2018-06-03T10:35:39.830Z,25.07
2018-06-03T10:38:08.699Z,25.23
2018-06-03T10:40:37.508Z,24.76
2018-06-03T10:43:06.561Z,24.76
2018-06-03T10:45:35.468Z,24.70
2018-06-03T10:48:04.318Z,24.37
2018-06-03T10:50:33.179Z,24.49
2018-06-03T10:53:01.981Z,24.12
2018-06-03T10:55:30.909Z,24.31
2018-06-03T10:57:59.947Z,24.18
2018-06-03T11:00:28.897Z,24.17
2018-06-03T11:02:57.947Z,24.58
2018-06-03T11:05:27.544Z,24.38
2018-06-03T11:07:56.575Z,24.92
2018-06-03T11:10:25.722Z,24.99
2018-06-03T11:12:54.829Z,25.10
2018-06-03T11:15:23.673Z,24.77
2018-06-03T11:17:52.727Z,25.34
2018-06-03T11:20:21.624Z,25.46
2018-06-03T11:22:56.778Z,24.90
2018-06-03T11:25:25.946Z,25.43
2018-06-03T11:27:55.237Z,25.70
2018-06-03T11:30:24.342Z,25.62
2018-06-03T11:32:53.293Z,25.58
2018-06-03T11:35:22.415Z,25.29
2018-06-03T11:37:51.739Z,25.51
2018-06-03T11:40:20.884Z,25.90
2018-06-03T11:42:49.878Z,25.99
2018-06-03T11:45:18.900Z,25.58
2018-06-03T11:47:48.109Z,25.34
2018-06-03T11:50:17.078Z,25.55
2018-06-03T11:52:46.116Z,25.43
2018-06-03T11:55:15.001Z,25.80
2018-06-03T11:57:45.020Z,26.08
2018-06-03T12:00:14.182Z,25.87
2018-06-03T12:02:43.177Z,25.62
2018-06-03T12:05:12.104Z,25.28
2018-06-03T12:07:41.101Z,25.30
2018-06-03T12:10:10.113Z,26.05
2018-06-03T12:12:38.976Z,25.65
2018-06-03T12:15:08.084Z,25.64
2018-06-03T12:17:37.054Z,25.91
2018-06-03T12:20:05.975Z,25.50
2018-06-03T12:23:10.881Z,25.44
2018-06-03T12:25:41.072Z,25.34
2018-06-03T12:28:11.252Z,25.40
2018-06-03T12:30:41.399Z,25.76
2018-06-03T12:33:11.592Z,25.91
2018-06-03T12:35:41.773Z,26.29
2018-06-03T12:38:11.933Z,26.43
2018-06-03T12:40:42.126Z,26.42
2018-06-03T12:43:12.268Z,26.78
2018-06-03T12:45:42.495Z,26.40
2018-06-03T12:48:12.804Z,26.39
2018-06-03T12:50:43.614Z,26.45
2018-06-03T12:53:13.867Z,26.35
2018-06-03T12:55:44.012Z,26.74
2018-06-03T12:58:14.974Z,26.80
2018-06-03T13:00:45.201Z,26.55
2018-06-03T13:03:15.736Z,27.24
2018-06-03T13:05:46.104Z,27.65
2018-06-03T13:08:16.368Z,28.35
2018-06-03T13:10:46.654Z,29.56
2018-06-03T13:13:17.002Z,30.63
2018-06-03T13:15:47.196Z,30.87
2018-06-03T13:18:17.177Z,30.03
2018-06-03T13:20:47.396Z,31.53
2018-06-03T13:23:17.581Z,31.37
2018-06-03T13:25:47.520Z,31.05
2018-06-03T13:28:17.357Z,30.96
2018-06-03T13:30:47.781Z,31.16
2018-06-03T13:33:17.609Z,31.58
2018-06-03T13:35:47.647Z,31.67
2018-06-03T13:38:17.478Z,31.62
2018-06-03T13:40:47.814Z,31.63
2018-06-03T13:43:18.109Z,31.22
2018-06-03T13:45:48.254Z,31.21
2018-06-03T13:48:18.596Z,31.10
2018-06-03T13:50:48.684Z,31.11
2018-06-03T13:53:18.772Z,31.56
2018-06-03T13:55:48.934Z,30.95
2018-06-03T13:58:18.714Z,30.10
2018-06-03T14:00:48.981Z,30.50
2018-06-03T14:03:19.317Z,31.18
2018-06-03T14:05:49.140Z,31.18
2018-06-03T14:08:19.438Z,30.60
2018-06-03T14:10:49.628Z,29.96
2018-06-03T14:13:19.981Z,29.53
2018-06-03T14:15:50.253Z,28.78
2018-06-03T14:18:20.220Z,28.69
2018-06-03T14:20:50.503Z,28.29
2018-06-03T14:23:20.597Z,27.58
2018-06-03T14:25:50.649Z,27.19
2018-06-03T14:28:20.986Z,26.84
2018-06-03T14:30:50.857Z,26.32
2018-06-03T14:33:20.895Z,26.03
2018-06-03T14:35:50.992Z,25.53
2018-06-03T14:38:21.199Z,25.08
2018-06-03T14:40:51.064Z,24.38
2018-06-03T14:43:20.991Z,23.85
2018-06-03T14:45:50.806Z,23.65
2018-06-03T14:48:20.753Z,23.70
2018-06-03T14:50:50.865Z,23.61
2018-06-03T14:53:20.568Z,23.45
2018-06-03T14:55:50.828Z,23.23
2018-06-03T14:58:21.132Z,23.40
2018-06-03T15:00:50.802Z,22.92
2018-06-03T15:03:20.800Z,23.27
2018-06-03T15:05:50.999Z,23.18
2018-06-03T15:08:20.896Z,23.29
2018-06-03T15:10:51.285Z,23.14
2018-06-03T15:13:21.245Z,23.31
2018-06-03T15:15:51.132Z,23.35
2018-06-03T15:18:21.102Z,23.25
2018-06-03T15:20:51.365Z,23.12
2018-06-03T15:23:21.549Z,22.69
2018-06-03T15:25:51.835Z,23.01
2018-06-03T15:28:21.561Z,22.96
2018-06-03T15:30:51.499Z,22.39
2018-06-03T15:33:21.467Z,22.41
2018-06-03T15:35:52.655Z,22.16
2018-06-03T15:38:22.732Z,22.16
2018-06-03T15:40:52.900Z,22.12
2018-06-03T15:43:23.068Z,21.87
2018-06-03T15:45:52.830Z,21.75
2018-06-03T15:48:22.640Z,21.80
2018-06-03T15:50:52.440Z,21.71
2018-06-03T15:53:22.156Z,21.87
2018-06-03T15:55:51.906Z,21.89
2018-06-03T15:58:21.800Z,21.86
2018-06-03T16:00:51.558Z,22.01
2018-06-03T16:03:21.896Z,22.03
2018-06-03T16:05:51.857Z,22.18
2018-06-03T16:08:21.727Z,22.39
2018-06-03T16:10:51.838Z,22.43
2018-06-03T16:13:21.581Z,22.48
2018-06-03T16:15:51.357Z,22.56
2018-06-03T16:18:22.481Z,22.50
2018-06-03T16:20:52.437Z,22.57
2018-06-03T16:23:22.245Z,22.68
2018-06-03T16:25:52.230Z,22.71
2018-06-03T16:28:21.924Z,22.58
2018-06-03T16:30:51.622Z,22.80
2018-06-03T16:33:21.567Z,22.81
2018-06-03T16:35:51.270Z,23.08
2018-06-03T16:38:20.958Z,22.98
2018-06-03T16:40:50.702Z,22.74
2018-06-03T16:43:20.614Z,22.51
2018-06-03T16:45:50.520Z,22.52
2018-06-03T16:48:20.193Z,22.67
2018-06-03T16:50:49.919Z,22.18
2018-06-03T16:53:20.157Z,22.17
2018-06-03T16:55:50.504Z,22.11
2018-06-03T16:58:20.275Z,21.98
2018-06-03T17:00:50.199Z,21.94
2018-06-03T17:03:20.062Z,22.19
2018-06-03T17:05:49.763Z,22.03
2018-06-03T17:08:19.678Z,21.99
2018-06-03T17:10:49.512Z,22.47
2018-06-03T17:13:19.246Z,23.88
2018-06-03T17:15:49.064Z,23.63
2018-06-03T17:18:18.782Z,23.78
2018-06-03T17:20:48.616Z,23.43
2018-06-03T17:23:18.356Z,23.03
2018-06-03T17:25:48.060Z,22.87
2018-06-03T17:28:17.782Z,22.74
2018-06-03T17:30:47.607Z,22.42
2018-06-03T17:33:17.409Z,22.60
2018-06-03T17:35:47.156Z,22.55
2018-06-03T17:38:16.950Z,22.13
2018-06-03T17:40:46.718Z,21.91
2018-06-03T17:43:16.542Z,22.15
2018-06-03T17:45:46.216Z,21.83
2018-06-03T17:48:16.024Z,21.64
2018-06-03T17:50:45.781Z,21.64
2018-06-03T17:53:15.484Z,21.58
2018-06-03T17:55:45.449Z,21.59
2018-06-03T17:58:15.212Z,21.18
2018-06-03T18:00:44.860Z,21.17
2018-06-03T18:03:14.760Z,21.17
2018-06-03T18:05:44.477Z,21.29
2018-06-03T18:08:14.329Z,21.78
2018-06-03T18:10:44.153Z,21.85
2018-06-03T18:13:13.917Z,21.70
2018-06-03T18:15:43.672Z,21.77
2018-06-03T18:18:13.425Z,21.24
2018-06-03T18:20:43.248Z,21.15
2018-06-03T18:23:12.947Z,20.97
2018-06-03T18:25:42.761Z,20.91
2018-06-03T18:28:12.505Z,21.22
2018-06-03T18:30:42.201Z,21.18
2018-06-03T18:33:11.912Z,20.90
2018-06-03T18:35:50.047Z,20.79
2018-06-03T18:38:25.581Z,20.82
2018-06-03T18:41:09.280Z,20.93
2018-06-03T18:43:47.595Z,20.86
2018-06-03T18:46:17.363Z,21.09
2018-06-03T18:48:49.769Z,21.35
2018-06-03T18:51:24.393Z,21.25
2018-06-03T18:53:56.122Z,20.94
2018-06-03T18:56:30.969Z,21.03
2018-06-03T18:59:00.796Z,20.68
2018-06-03T19:01:30.764Z,20.64
2018-06-03T19:04:00.546Z,20.52
2018-06-03T19:06:30.249Z,20.76
2018-06-03T19:09:00.308Z,20.41
2018-06-03T19:11:30.208Z,20.39
2018-06-03T19:14:00.232Z,20.46
2018-06-03T19:16:29.888Z,20.48
2018-06-03T19:18:59.593Z,20.33
2018-06-03T19:21:29.448Z,20.53
2018-06-03T19:23:59.217Z,20.74
2018-06-03T19:26:28.936Z,20.20
2018-06-03T19:28:58.765Z,20.13
2018-06-03T19:31:28.896Z,20.19
2018-06-03T19:33:58.680Z,20.12
2018-06-03T19:36:28.504Z,20.07
2018-06-03T19:38:58.141Z,20.41
2018-06-03T19:41:27.916Z,20.06
2018-06-03T19:43:57.672Z,20.37
2018-06-03T19:46:28.225Z,20.12
2018-06-03T19:48:58.056Z,20.72
2018-06-03T19:51:34.479Z,20.29
2018-06-03T19:54:18.394Z,19.97
2018-06-03T19:57:03.232Z,20.08
2018-06-03T19:59:33.047Z,19.97
2018-06-03T20:02:05.170Z,20.02
2018-06-03T20:04:48.551Z,20.00
2018-06-03T20:07:19.160Z,19.75
2018-06-03T20:09:48.959Z,19.81
2018-06-03T20:12:18.709Z,20.06
2018-06-03T20:14:48.476Z,20.27
2018-06-03T20:17:18.212Z,19.84
2018-06-03T20:19:48.102Z,19.88
2018-06-03T20:22:17.830Z,20.28
2018-06-03T20:24:47.494Z,20.33
2018-06-03T20:27:17.324Z,19.97
2018-06-03T20:29:47.056Z,19.96
2018-06-03T20:32:16.838Z,19.85
2018-06-03T20:34:46.932Z,19.71
2018-06-03T20:37:17.038Z,19.73
2018-06-03T20:39:46.780Z,19.67
2018-06-03T20:42:16.448Z,19.98
2018-06-03T20:44:46.248Z,19.99
2018-06-03T20:47:16.014Z,20.11
2018-06-03T20:49:45.899Z,19.90
2018-06-03T20:52:16.147Z,19.71
2018-06-03T20:54:45.956Z,19.85
2018-06-03T20:57:15.625Z,19.77
2018-06-03T20:59:45.382Z,19.86
2018-06-03T21:02:15.120Z,19.70
2018-06-03T21:04:44.904Z,19.78
2018-06-03T21:07:14.696Z,20.03
2018-06-03T21:09:44.476Z,20.01
2018-06-03T21:12:14.255Z,19.85
2018-06-03T21:14:44.259Z,19.94
2018-06-03T21:17:14.428Z,20.04
2018-06-03T21:19:44.441Z,19.94
2018-06-03T21:22:14.408Z,19.88
2018-06-03T21:24:44.341Z,19.97
2018-06-03T21:27:14.045Z,20.13
2018-06-03T21:29:43.800Z,20.09
2018-06-03T21:32:13.724Z,20.42
2018-06-03T21:34:43.813Z,20.64
2018-06-03T21:37:13.496Z,20.60
2018-06-03T21:39:43.481Z,20.61
2018-06-03T21:42:13.168Z,20.51
2018-06-03T21:44:43.201Z,20.50
2018-06-03T21:47:13.204Z,20.53
2018-06-03T21:49:43.261Z,20.50
2018-06-03T21:52:13.321Z,20.54
2018-06-03T21:54:43.392Z,20.64
2018-06-03T21:57:13.454Z,20.43
2018-06-03T21:59:43.185Z,20.48
2018-06-03T22:02:12.881Z,20.48
2018-06-03T22:04:42.576Z,20.58
2018-06-03T22:07:12.666Z,20.50
2018-06-03T22:09:42.749Z,20.57
2018-06-03T22:12:12.473Z,20.52
2018-06-03T22:14:42.860Z,20.57
2018-06-03T22:17:13.140Z,20.32
2018-06-03T22:19:43.464Z,20.49
2018-06-03T22:22:13.652Z,20.30
2018-06-03T22:24:43.704Z,20.07
2018-06-03T22:27:13.488Z,20.04
2018-06-03T22:29:43.509Z,19.94
2018-06-03T22:32:13.559Z,19.79
2018-06-03T22:34:43.315Z,19.86
2018-06-03T22:37:13.221Z,19.75
2018-06-03T22:39:42.901Z,19.71
2018-06-03T22:42:12.721Z,19.73
2018-06-03T22:44:42.472Z,19.70
2018-06-03T22:47:12.603Z,19.69
2018-06-03T22:49:42.451Z,19.73
2018-06-03T22:52:12.277Z,19.76
2018-06-03T22:54:42.279Z,19.77
2018-06-03T22:57:52.008Z,19.70
2018-06-03T23:00:31.081Z,19.65
2018-06-03T23:03:06.430Z,19.62
2018-06-03T23:05:36.962Z,19.61
2018-06-03T23:08:07.195Z,19.49
2018-06-03T23:10:37.500Z,19.41
2018-06-03T23:13:07.630Z,19.35
2018-06-03T23:15:37.541Z,19.30
2018-06-03T23:18:07.713Z,19.22
2018-06-03T23:20:37.734Z,19.21
2018-06-03T23:23:07.961Z,19.22
2018-06-03T23:25:38.193Z,19.22
2018-06-03T23:28:08.431Z,19.26
2018-06-03T23:30:38.337Z,19.33
2018-06-03T23:33:08.284Z,19.49
2018-06-03T23:35:38.190Z,19.50
2018-06-03T23:38:08.247Z,19.27
2018-06-03T23:40:38.669Z,19.19
2018-06-03T23:43:08.664Z,19.18
2018-06-03T23:45:38.606Z,19.15
2018-06-03T23:48:08.466Z,19.09
2018-06-03T23:50:38.440Z,19.16
2018-06-03T23:53:08.670Z,19.26
2018-06-03T23:55:38.919Z,19.13
2018-06-03T23:58:09.272Z,19.23
